createdAt,value
2022-09-27T00:00:25.693Z,0.50
2022-09-27T00:02:52.192Z,0.95
2022-09-27T00:05:18.659Z,0.70
2022-09-27T00:07:45.101Z,0.65
2022-09-27T00:10:11.519Z,0.65
2022-09-27T00:12:37.942Z,0.45
2022-09-27T00:15:04.385Z,0.50
2022-09-27T00:17:30.811Z,0.45
2022-09-27T00:19:57.244Z,0.60
2022-09-27T00:22:23.678Z,1.13
2022-09-27T00:24:50.117Z,0.50
2022-09-27T00:27:16.548Z,0.70
2022-09-27T00:29:42.995Z,0.82
2022-09-27T00:32:09.420Z,0.63
2022-09-27T00:34:35.856Z,0.90
2022-09-27T00:37:02.279Z,0.60
2022-09-27T00:39:28.709Z,0.30
2022-09-27T00:41:55.136Z,0.45
2022-09-27T00:44:21.572Z,0.80
2022-09-27T00:46:48.002Z,0.47
2022-09-27T00:49:14.552Z,0.50
2022-09-27T00:51:41.090Z,1.08
2022-09-27T00:54:07.525Z,0.50
2022-09-27T00:56:33.960Z,0.63
2022-09-27T00:59:00.396Z,0.40
2022-09-27T01:01:26.898Z,0.32
2022-09-27T01:03:53.412Z,0.65
2022-09-27T01:06:20.873Z,0.75
2022-09-27T01:08:47.297Z,0.40
2022-09-27T01:11:13.723Z,0.30
2022-09-27T01:13:40.190Z,0.40
2022-09-27T01:16:06.685Z,0.93
2022-09-27T01:18:33.126Z,0.60
2022-09-27T01:20:59.566Z,0.52
2022-09-27T01:23:25.999Z,0.60
2022-09-27T01:25:52.466Z,0.30
2022-09-27T01:28:18.900Z,0.40
2022-09-27T01:30:45.388Z,0.50
2022-09-27T01:33:11.845Z,0.40
2022-09-27T01:35:38.289Z,0.30
2022-09-27T01:38:04.718Z,0.40
2022-09-27T01:40:31.253Z,0.10
2022-09-27T01:42:57.715Z,0.20
2022-09-27T01:45:24.157Z,0.30
2022-09-27T01:47:50.594Z,0.45
2022-09-27T01:50:17.012Z,0.40
2022-09-27T01:52:43.448Z,0.30
2022-09-27T01:55:09.870Z,0.30
2022-09-27T01:57:36.316Z,0.30
2022-09-27T02:00:02.753Z,0.45
2022-09-27T02:02:29.262Z,0.30
2022-09-27T02:04:55.810Z,0.20
2022-09-27T02:07:22.235Z,0.20
2022-09-27T02:09:48.745Z,0.40
2022-09-27T02:12:15.198Z,0.10
2022-09-27T02:14:41.633Z,0.40
2022-09-27T02:17:08.043Z,0.30
2022-09-27T02:19:34.479Z,0.30
2022-09-27T02:22:00.931Z,0.20
2022-09-27T02:24:27.381Z,0.10
2022-09-27T02:26:53.798Z,0.35
2022-09-27T02:29:20.229Z,0.20
2022-09-27T02:31:46.673Z,0.30
2022-09-27T02:34:13.124Z,0.10
2022-09-27T02:36:39.563Z,0.20
2022-09-27T02:39:06.014Z,0.17
2022-09-27T02:41:32.464Z,0.13
2022-09-27T02:43:58.916Z,0.17
2022-09-27T02:46:25.393Z,0.30
2022-09-27T02:48:51.955Z,0.30
2022-09-27T02:51:18.393Z,0.10
2022-09-27T02:53:44.858Z,0.20
2022-09-27T02:56:11.289Z,0.38
2022-09-27T02:58:37.709Z,0.10
2022-09-27T03:01:04.174Z,0.25
2022-09-27T03:03:30.682Z,0.20
2022-09-27T03:05:57.115Z,0.30
2022-09-27T03:08:23.533Z,0.22
2022-09-27T03:10:49.959Z,0.17
2022-09-27T03:13:16.402Z,0.10
2022-09-27T03:15:42.824Z,0.00
2022-09-27T03:18:09.258Z,0.20
2022-09-27T03:20:35.691Z,0.13
2022-09-27T03:23:02.116Z,0.20
2022-09-27T03:25:28.545Z,0.10
2022-09-27T03:27:54.982Z,0.10
2022-09-27T03:30:21.400Z,0.10
2022-09-27T03:32:47.849Z,0.22
2022-09-27T03:35:14.270Z,0.20
2022-09-27T03:37:40.713Z,0.28
2022-09-27T03:40:07.153Z,0.20
2022-09-27T03:42:33.626Z,0.22
2022-09-27T03:45:00.075Z,0.22
2022-09-27T03:47:26.525Z,0.30
2022-09-27T03:49:52.957Z,0.22
2022-09-27T03:52:19.406Z,0.32
2022-09-27T03:54:45.843Z,0.20
2022-09-27T03:57:12.382Z,0.30
2022-09-27T03:59:38.821Z,0.22
2022-09-27T04:02:05.297Z,0.30
2022-09-27T04:04:31.750Z,0.40
2022-09-27T04:06:58.196Z,0.40
2022-09-27T04:09:24.624Z,0.20
2022-09-27T04:11:51.066Z,0.20
2022-09-27T04:14:17.485Z,0.30
2022-09-27T04:16:44.047Z,0.10
2022-09-27T04:19:10.514Z,0.10
2022-09-27T04:21:36.998Z,0.35
2022-09-27T04:24:03.431Z,0.40
2022-09-27T04:26:29.873Z,0.40
2022-09-27T04:28:56.323Z,0.30
2022-09-27T04:31:22.803Z,0.30
2022-09-27T04:33:49.357Z,0.50
2022-09-27T04:36:15.776Z,0.50
2022-09-27T04:38:42.222Z,0.70
2022-09-27T04:41:08.660Z,0.43
2022-09-27T04:43:35.102Z,0.47
2022-09-27T04:46:01.597Z,0.40
2022-09-27T04:48:28.081Z,0.70
2022-09-27T04:50:54.520Z,0.45
2022-09-27T04:53:20.954Z,0.88
2022-09-27T04:55:47.412Z,0.50
2022-09-27T04:58:13.878Z,0.55
2022-09-27T05:00:40.288Z,0.75
2022-09-27T05:03:06.745Z,0.60
2022-09-27T05:05:33.162Z,0.47
2022-09-27T05:07:59.614Z,0.70
2022-09-27T05:10:26.049Z,0.40
2022-09-27T05:12:52.489Z,0.40
2022-09-27T05:15:18.934Z,0.38
2022-09-27T05:17:45.350Z,0.32
2022-09-27T05:20:11.784Z,0.40
2022-09-27T05:22:38.208Z,0.50
2022-09-27T05:25:04.641Z,0.50
2022-09-27T05:27:31.168Z,0.60
2022-09-27T05:29:57.709Z,0.57
2022-09-27T05:32:24.124Z,0.50
2022-09-27T05:34:50.561Z,0.80
2022-09-27T05:37:17.000Z,0.50
2022-09-27T05:39:43.446Z,0.52
2022-09-27T05:42:09.900Z,0.50
2022-09-27T05:44:36.343Z,0.20
2022-09-27T05:47:02.809Z,0.40
2022-09-27T05:49:29.232Z,0.30
2022-09-27T05:51:55.683Z,0.60
2022-09-27T05:54:22.134Z,0.40
2022-09-27T05:56:48.580Z,0.43
2022-09-27T05:59:15.019Z,0.20
2022-09-27T06:01:41.508Z,0.65
2022-09-27T06:04:08.009Z,0.35
2022-09-27T06:06:34.461Z,0.40
2022-09-27T06:11:32.254Z,0.77
2022-09-27T06:13:58.682Z,0.35
2022-09-27T06:16:25.167Z,0.30
2022-09-27T06:18:51.624Z,0.30
2022-09-27T06:21:18.053Z,0.38
2022-09-27T06:23:44.469Z,0.47
2022-09-27T06:26:10.920Z,0.40
2022-09-27T06:28:37.367Z,0.45
2022-09-27T06:31:03.874Z,0.40
2022-09-27T06:33:30.376Z,0.25
2022-09-27T06:35:56.819Z,0.60
2022-09-27T06:38:23.245Z,0.40
2022-09-27T06:40:49.697Z,0.47
2022-09-27T06:43:16.179Z,0.50
2022-09-27T06:45:42.679Z,0.70
2022-09-27T06:48:09.160Z,0.55
2022-09-27T06:50:35.587Z,0.40
2022-09-27T06:53:02.018Z,0.50
2022-09-27T06:55:28.450Z,0.50
2022-09-27T06:57:54.917Z,0.73
2022-09-27T07:00:21.357Z,0.60
2022-09-27T07:02:47.810Z,0.47
2022-09-27T07:05:14.249Z,0.40
2022-09-27T07:07:40.701Z,0.60
2022-09-27T07:10:09.871Z,0.82
2022-09-27T07:12:36.644Z,0.60
2022-09-27T07:15:03.085Z,0.45
2022-09-27T07:17:29.522Z,0.85
2022-09-27T07:19:56.248Z,0.50
2022-09-27T07:22:22.717Z,0.65
2022-09-27T07:24:49.149Z,0.63
2022-09-27T07:27:15.578Z,0.80
2022-09-27T07:29:42.107Z,0.70
2022-09-27T07:32:08.541Z,0.85
2022-09-27T07:34:34.980Z,0.68
2022-09-27T07:37:01.409Z,0.70
2022-09-27T07:39:27.862Z,0.50
2022-09-27T07:41:54.301Z,0.88
2022-09-27T07:44:20.749Z,0.75
2022-09-27T07:46:47.194Z,0.77
2022-09-27T07:49:13.688Z,0.68
2022-09-27T07:51:40.161Z,0.93
2022-09-27T07:54:08.767Z,0.40
2022-09-27T07:56:35.388Z,0.32
2022-09-27T07:59:01.840Z,0.98
2022-09-27T08:01:28.265Z,0.40
2022-09-27T08:03:54.721Z,1.02
2022-09-27T08:06:21.132Z,0.60
2022-09-27T08:08:47.584Z,0.80
2022-09-27T08:11:14.029Z,0.77
2022-09-27T08:13:40.468Z,0.65
2022-09-27T08:16:06.946Z,0.60
2022-09-27T08:18:33.404Z,0.95
2022-09-27T08:20:59.868Z,0.40
2022-09-27T08:23:26.284Z,0.40
2022-09-27T08:25:52.730Z,0.82
2022-09-27T08:28:19.145Z,0.80
2022-09-27T08:30:45.585Z,0.55
2022-09-27T08:33:12.029Z,0.50
2022-09-27T08:35:38.445Z,0.85
2022-09-27T08:38:04.883Z,1.08
2022-09-27T08:40:31.365Z,0.70
2022-09-27T08:42:57.815Z,0.40
2022-09-27T08:45:24.275Z,0.60
2022-09-27T08:47:50.807Z,0.77
2022-09-27T08:50:17.242Z,0.45
2022-09-27T08:52:43.668Z,0.80
2022-09-27T08:55:10.100Z,0.55
2022-09-27T08:57:36.528Z,0.52
2022-09-27T09:00:02.953Z,0.60
2022-09-27T09:02:29.424Z,0.50
2022-09-27T09:04:55.863Z,0.57
2022-09-27T09:07:22.305Z,0.93
2022-09-27T09:09:48.728Z,0.65
2022-09-27T09:12:15.186Z,0.50
2022-09-27T09:14:41.618Z,0.40
2022-09-27T09:17:08.067Z,0.50
2022-09-27T09:19:34.612Z,1.00
2022-09-27T09:22:01.080Z,0.55
2022-09-27T09:24:27.518Z,0.65
2022-09-27T09:26:53.935Z,0.60
2022-09-27T09:29:20.408Z,0.82
2022-09-27T09:31:46.919Z,0.50
2022-09-27T09:34:13.418Z,0.70
2022-09-27T09:36:39.882Z,0.60
2022-09-27T09:39:06.340Z,0.57
2022-09-27T09:41:32.787Z,0.50
2022-09-27T09:43:59.314Z,0.38
2022-09-27T09:46:25.754Z,1.85
2022-09-27T09:48:52.179Z,1.40
2022-09-27T09:51:18.625Z,1.40
2022-09-27T09:53:45.053Z,0.50
2022-09-27T09:56:11.485Z,0.88
2022-09-27T09:58:37.923Z,0.70
2022-09-27T10:01:04.445Z,0.50
2022-09-27T10:03:30.893Z,0.88
2022-09-27T10:05:57.328Z,0.60
2022-09-27T10:08:23.761Z,0.32
2022-09-27T10:10:50.217Z,0.70
2022-09-27T10:13:16.639Z,0.50
2022-09-27T10:15:43.071Z,0.65
2022-09-27T10:18:09.541Z,0.30
2022-09-27T10:20:35.990Z,0.40
2022-09-27T10:23:02.437Z,0.50
2022-09-27T10:25:28.864Z,0.30
2022-09-27T10:27:55.335Z,0.40
2022-09-27T10:30:21.753Z,0.40
2022-09-27T10:32:48.181Z,0.30
2022-09-27T10:35:14.598Z,0.30
2022-09-27T10:37:41.042Z,0.30
2022-09-27T10:40:07.469Z,0.25
2022-09-27T10:42:33.962Z,0.55
2022-09-27T10:45:00.438Z,0.22
2022-09-27T10:47:26.881Z,0.30
2022-09-27T10:49:53.332Z,0.38
2022-09-27T10:52:19.792Z,0.35
2022-09-27T10:54:46.213Z,0.35
2022-09-27T10:57:12.637Z,0.40
2022-09-27T10:59:39.059Z,0.20
2022-09-27T11:02:05.483Z,0.20
2022-09-27T11:04:31.977Z,0.28
2022-09-27T11:06:58.422Z,0.30
2022-09-27T11:09:24.853Z,0.50
2022-09-27T11:11:51.276Z,0.45
2022-09-27T11:14:17.723Z,0.30
2022-09-27T11:16:44.182Z,0.40
2022-09-27T11:19:15.133Z,0.32
2022-09-27T11:21:41.918Z,0.60
2022-09-27T11:24:08.420Z,0.38
2022-09-27T11:26:34.865Z,0.50
2022-09-27T11:29:01.305Z,0.70
2022-09-27T11:31:27.790Z,0.35
2022-09-27T11:33:54.261Z,0.70
2022-09-27T11:36:20.703Z,0.93
2022-09-27T11:38:54.358Z,0.90
2022-09-27T11:41:21.260Z,0.60
2022-09-27T11:43:47.693Z,0.52
2022-09-27T11:46:20.585Z,0.75
2022-09-27T11:48:50.980Z,0.60
2022-09-27T11:51:17.411Z,0.60
2022-09-27T11:53:43.841Z,0.30
2022-09-27T11:56:10.273Z,0.47
2022-09-27T11:58:36.725Z,0.70
2022-09-27T12:01:03.189Z,0.40
2022-09-27T12:03:29.621Z,0.85
2022-09-27T12:05:58.437Z,0.28
2022-09-27T12:08:26.333Z,0.40
2022-09-27T12:10:52.762Z,0.40
2022-09-27T12:13:19.266Z,0.47
2022-09-27T12:15:45.764Z,0.50
2022-09-27T12:18:12.252Z,0.50
2022-09-27T12:20:38.692Z,0.43
2022-09-27T12:23:05.147Z,0.43
2022-09-27T12:25:31.603Z,0.35
2022-09-27T12:27:58.060Z,0.45
2022-09-27T12:30:24.477Z,0.60
2022-09-27T12:32:50.903Z,0.50
2022-09-27T12:35:17.365Z,0.40
2022-09-27T12:37:43.810Z,0.50
2022-09-27T12:40:10.251Z,0.50
2022-09-27T12:42:36.679Z,0.55
2022-09-27T12:45:03.114Z,0.50
2022-09-27T12:47:29.542Z,0.47
2022-09-27T12:50:01.038Z,0.45
2022-09-27T12:52:28.011Z,0.35
2022-09-27T12:54:54.445Z,0.40
2022-09-27T12:57:20.870Z,0.40
2022-09-27T12:59:47.309Z,0.60
2022-09-27T13:02:13.847Z,0.38
2022-09-27T13:04:40.325Z,0.50
2022-09-27T13:07:06.920Z,0.40
2022-09-27T13:09:33.343Z,0.60
2022-09-27T13:11:59.791Z,0.60
2022-09-27T13:14:26.217Z,0.45
2022-09-27T13:16:52.662Z,0.90
2022-09-27T13:19:20.395Z,0.50
2022-09-27T13:21:48.351Z,0.40
2022-09-27T13:24:14.858Z,0.47
2022-09-27T13:26:41.273Z,0.50
2022-09-27T13:29:07.699Z,0.35
2022-09-27T13:31:34.132Z,0.52
2022-09-27T13:34:00.586Z,0.43
2022-09-27T13:36:27.027Z,0.30
2022-09-27T13:38:53.468Z,0.57
2022-09-27T13:41:19.880Z,0.30
2022-09-27T13:43:46.339Z,0.40
2022-09-27T13:46:12.894Z,0.25
2022-09-27T13:48:39.372Z,0.20
2022-09-27T13:51:05.793Z,0.50
2022-09-27T13:53:32.231Z,0.43
2022-09-27T13:55:58.690Z,0.70
2022-09-27T13:58:25.110Z,0.57
2022-09-27T14:00:51.622Z,0.30
2022-09-27T14:03:18.109Z,0.30
2022-09-27T14:05:44.541Z,0.40
2022-09-27T14:08:10.956Z,0.30
2022-09-27T14:10:37.391Z,0.30
2022-09-27T14:13:03.805Z,0.28
2022-09-27T14:15:30.266Z,0.30
2022-09-27T14:17:56.696Z,0.28
2022-09-27T14:20:23.225Z,0.32
2022-09-27T14:22:49.643Z,0.60
2022-09-27T14:25:16.077Z,0.30
2022-09-27T14:27:42.514Z,0.30
2022-09-27T14:30:08.960Z,0.30
2022-09-27T14:32:35.388Z,0.30
2022-09-27T14:35:01.813Z,0.25
2022-09-27T14:37:28.273Z,0.28
2022-09-27T14:39:54.710Z,0.57
2022-09-27T14:42:21.136Z,0.22
2022-09-27T14:44:47.561Z,0.40
2022-09-27T14:47:14.009Z,0.88
2022-09-27T14:49:40.442Z,0.57
2022-09-27T14:52:06.894Z,0.47
2022-09-27T14:54:33.337Z,0.30
2022-09-27T14:56:59.765Z,0.30
2022-09-27T14:59:26.189Z,0.22
2022-09-27T15:01:52.640Z,0.25
2022-09-27T15:04:19.217Z,0.20
2022-09-27T15:06:45.775Z,0.50
2022-09-27T15:09:12.284Z,0.35
2022-09-27T15:11:38.769Z,0.30
2022-09-27T15:14:05.192Z,0.30
2022-09-27T15:16:31.663Z,0.28
2022-09-27T15:18:58.398Z,0.30
2022-09-27T15:21:24.870Z,0.20
2022-09-27T15:23:51.325Z,0.20
2022-09-27T15:26:17.739Z,0.40
2022-09-27T15:28:44.160Z,0.40
2022-09-27T15:31:10.613Z,0.30
2022-09-27T15:33:37.088Z,0.40
2022-09-27T15:36:03.518Z,0.30
2022-09-27T15:38:29.962Z,0.32
2022-09-27T15:40:56.442Z,0.30
2022-09-27T15:43:22.925Z,0.17
2022-09-27T15:45:49.415Z,0.10
2022-09-27T15:48:15.860Z,0.30
2022-09-27T15:50:42.310Z,0.20
2022-09-27T15:53:08.767Z,0.50
2022-09-27T15:55:35.209Z,0.55
2022-09-27T15:58:01.658Z,0.40
2022-09-27T16:00:28.113Z,0.50
2022-09-27T16:02:54.601Z,0.30
2022-09-27T16:05:21.045Z,0.13
2022-09-27T16:07:47.457Z,0.20
2022-09-27T16:10:13.893Z,0.25
2022-09-27T16:12:40.315Z,0.32
2022-09-27T16:15:06.747Z,0.20
2022-09-27T16:17:33.197Z,0.32
2022-09-27T16:19:59.628Z,0.30
2022-09-27T16:22:26.059Z,0.20
2022-09-27T16:24:52.530Z,0.10
2022-09-27T16:27:18.949Z,0.10
2022-09-27T16:29:45.383Z,0.10
2022-09-27T16:32:11.807Z,0.20
2022-09-27T16:34:38.325Z,0.10
2022-09-27T16:37:05.220Z,0.20
2022-09-27T16:39:31.735Z,0.20
2022-09-27T16:41:58.169Z,0.20
2022-09-27T16:44:24.618Z,0.10
2022-09-27T16:46:51.110Z,0.10
2022-09-27T16:49:17.656Z,0.20
2022-09-27T16:51:44.088Z,0.10
2022-09-27T16:54:10.589Z,0.17
2022-09-27T16:56:37.142Z,0.10
2022-09-27T16:59:03.584Z,0.10
2022-09-27T17:01:30.032Z,0.13
2022-09-27T17:03:57.642Z,0.20
2022-09-27T17:06:24.224Z,0.10
2022-09-27T17:08:50.685Z,0.13
2022-09-27T17:11:17.113Z,0.30
2022-09-27T17:13:43.547Z,0.17
2022-09-27T17:16:10.016Z,0.17
2022-09-27T17:18:36.548Z,0.13
2022-09-27T17:21:02.977Z,0.20
2022-09-27T17:23:29.400Z,0.32
2022-09-27T17:25:55.846Z,0.20
2022-09-27T17:28:22.308Z,0.10
2022-09-27T17:30:48.746Z,0.20
2022-09-27T17:33:15.213Z,0.30
2022-09-27T17:35:41.649Z,0.20
2022-09-27T17:38:08.094Z,0.10
2022-09-27T17:40:34.607Z,0.30
2022-09-27T17:43:01.099Z,0.13
2022-09-27T17:45:27.560Z,0.20
2022-09-27T17:47:53.994Z,0.45
2022-09-27T17:50:20.429Z,0.47
2022-09-27T17:52:46.865Z,0.30
2022-09-27T17:55:13.300Z,0.25
2022-09-27T17:57:39.715Z,0.80
2022-09-27T18:00:06.145Z,1.38
2022-09-27T18:02:32.692Z,1.30
2022-09-27T18:04:59.169Z,1.10
2022-09-27T18:07:25.613Z,0.80
2022-09-27T18:09:52.067Z,0.80
2022-09-27T18:12:18.494Z,0.57
2022-09-27T18:14:44.951Z,0.52
2022-09-27T18:17:11.379Z,0.55
2022-09-27T18:19:37.808Z,0.30
2022-09-27T18:22:04.232Z,0.38
2022-09-27T18:24:30.669Z,0.20
2022-09-27T18:26:57.094Z,0.30
2022-09-27T18:29:23.589Z,0.40
2022-09-27T18:34:33.904Z,0.30
2022-09-27T18:37:00.315Z,0.50
2022-09-27T18:39:26.745Z,0.40
2022-09-27T18:41:53.160Z,0.47
2022-09-27T18:44:19.751Z,0.50
2022-09-27T18:46:46.317Z,0.63
2022-09-27T18:49:12.767Z,0.68
2022-09-27T18:51:39.197Z,0.40
2022-09-27T18:54:05.631Z,0.38
2022-09-27T18:56:32.086Z,0.43
2022-09-27T18:58:58.516Z,0.57
2022-09-27T19:01:25.021Z,0.30
2022-09-27T19:03:51.507Z,0.35
2022-09-27T19:06:17.968Z,0.20
2022-09-27T19:08:44.381Z,0.52
2022-09-27T19:11:10.806Z,0.35
2022-09-27T19:13:46.047Z,0.40
2022-09-27T19:16:16.895Z,0.60
2022-09-27T19:18:43.397Z,0.38
2022-09-27T19:21:10.505Z,0.40
2022-09-27T19:23:36.970Z,0.43
2022-09-27T19:26:03.412Z,0.50
2022-09-27T19:28:29.827Z,0.70
2022-09-27T19:30:56.311Z,0.65
2022-09-27T19:33:22.792Z,0.57
2022-09-27T19:35:49.224Z,0.60
2022-09-27T19:38:15.666Z,0.50
2022-09-27T19:40:42.115Z,0.57
2022-09-27T19:43:08.582Z,0.75
2022-09-27T19:45:35.016Z,0.60
2022-09-27T19:48:01.435Z,0.68
2022-09-27T19:50:27.872Z,0.38
2022-09-27T19:52:54.291Z,0.43
2022-09-27T19:55:20.726Z,0.50
2022-09-27T19:57:47.162Z,0.50
2022-09-27T20:00:13.594Z,0.47
2022-09-27T20:02:40.043Z,0.43
2022-09-27T20:05:06.561Z,0.55
2022-09-27T20:07:32.979Z,0.50
2022-09-27T20:09:59.424Z,0.47
2022-09-27T20:12:25.856Z,0.50
2022-09-27T20:14:52.281Z,0.40
2022-09-27T20:17:18.721Z,0.50
2022-09-27T20:19:45.145Z,0.50
2022-09-27T20:22:11.583Z,0.50
2022-09-27T20:24:38.002Z,0.47
2022-09-27T20:27:04.429Z,0.52
2022-09-27T20:29:30.844Z,0.50
2022-09-27T20:32:25.656Z,0.45
2022-09-27T20:34:43.672Z,0.60
2022-09-27T20:37:10.105Z,0.60
2022-09-27T20:39:36.528Z,0.50
2022-09-27T20:42:02.952Z,0.40
2022-09-27T20:44:29.383Z,0.30
2022-09-27T20:46:55.851Z,0.50
2022-09-27T20:49:22.342Z,0.10
2022-09-27T20:51:48.789Z,0.43
2022-09-27T20:54:15.202Z,0.30
2022-09-27T20:56:41.635Z,0.50
2022-09-27T20:59:11.534Z,0.50
2022-09-27T21:01:41.172Z,0.43
2022-09-27T21:04:07.629Z,0.40
2022-09-27T21:06:34.086Z,0.47
2022-09-27T21:09:00.502Z,0.43
2022-09-27T21:11:26.936Z,0.30
2022-09-27T21:13:53.353Z,0.75
2022-09-27T21:16:19.905Z,0.43
2022-09-27T21:18:46.376Z,0.50
2022-09-27T21:21:12.820Z,0.20
2022-09-27T21:23:44.108Z,0.40
2022-09-27T21:26:11.114Z,0.50
2022-09-27T21:28:37.540Z,0.60
2022-09-27T21:31:04.033Z,0.40
2022-09-27T21:33:30.511Z,0.57
2022-09-27T21:35:56.972Z,0.63
2022-09-27T21:38:23.412Z,0.70
2022-09-27T21:40:49.899Z,0.55
2022-09-27T21:43:16.327Z,0.73
2022-09-27T21:45:42.768Z,1.00
2022-09-27T21:48:09.193Z,0.90
2022-09-27T21:50:35.621Z,0.90
2022-09-27T21:53:02.069Z,0.70
2022-09-27T21:55:28.514Z,0.60
2022-09-27T21:57:54.946Z,0.55
2022-09-27T22:00:21.379Z,0.38
2022-09-27T22:02:47.825Z,0.75
2022-09-27T22:05:14.254Z,0.60
2022-09-27T22:07:40.699Z,0.68
2022-09-27T22:10:07.134Z,0.80
2022-09-27T22:12:33.581Z,0.90
2022-09-27T22:15:00.021Z,0.93
2022-09-27T22:17:26.469Z,1.35
2022-09-27T22:19:52.910Z,1.30
2022-09-27T22:22:19.346Z,1.95
2022-09-27T22:24:45.781Z,1.30
2022-09-27T22:27:12.238Z,1.52
2022-09-27T22:29:38.669Z,1.70
2022-09-27T22:32:05.119Z,1.20
2022-09-27T22:34:31.560Z,1.13
2022-09-27T22:36:58.010Z,1.00
2022-09-27T22:39:24.441Z,0.82
2022-09-27T22:41:50.894Z,1.10
2022-09-27T22:44:17.325Z,0.80
2022-09-27T22:46:43.838Z,0.70
2022-09-27T22:49:10.297Z,0.90
2022-09-27T22:51:36.746Z,1.00
2022-09-27T22:54:03.189Z,0.90
2022-09-27T22:56:29.642Z,0.70
2022-09-27T22:58:56.065Z,0.85
2022-09-27T23:01:22.517Z,1.00
2022-09-27T23:03:49.068Z,1.00
2022-09-27T23:06:15.592Z,0.85
2022-09-27T23:08:42.041Z,0.85
2022-09-27T23:11:08.487Z,1.10
2022-09-27T23:13:34.923Z,0.90
2022-09-27T23:16:01.405Z,0.93
2022-09-27T23:18:27.890Z,1.23
2022-09-27T23:20:54.325Z,1.25
2022-09-27T23:23:20.772Z,1.33
2022-09-27T23:25:47.216Z,1.23
2022-09-27T23:28:13.648Z,1.10
2022-09-27T23:30:40.080Z,0.98
2022-09-27T23:33:06.536Z,0.90
2022-09-27T23:35:32.959Z,1.17
2022-09-27T23:37:59.409Z,1.20
2022-09-27T23:40:25.875Z,1.25
2022-09-27T23:42:52.361Z,1.13
2022-09-27T23:45:18.799Z,1.20
2022-09-27T23:47:45.250Z,1.40
2022-09-27T23:50:11.691Z,1.33
2022-09-27T23:52:38.120Z,1.30
2022-09-27T23:55:04.552Z,1.23
2022-09-27T23:57:31.016Z,1.40
2022-09-27T23:59:57.449Z,1.30
